createdAt,value
2018-09-29T00:00:32.309Z,944.48
2018-09-29T00:01:32.651Z,944.47
2018-09-29T00:02:33.714Z,944.45
2018-09-29T00:03:34.946Z,944.44
2018-09-29T00:04:36.012Z,944.47
2018-09-29T00:05:36.800Z,944.43
2018-09-29T00:06:37.767Z,944.45
2018-09-29T00:07:38.838Z,944.44
2018-09-29T00:08:39.330Z,944.47
2018-09-29T00:09:40.112Z,944.43
2018-09-29T00:10:40.622Z,944.47
2018-09-29T00:11:41.853Z,944.48
2018-09-29T00:12:42.197Z,944.47
2018-09-29T00:13:42.980Z,944.49
2018-09-29T00:14:44.344Z,944.54
2018-09-29T00:15:44.851Z,944.58
2018-09-29T00:16:46.363Z,944.61
2018-09-29T00:17:47.424Z,944.63
2018-09-29T00:18:47.929Z,944.62
2018-09-29T00:19:48.708Z,944.59
2018-09-29T00:20:49.044Z,944.54
2018-09-29T00:21:50.106Z,944.52
2018-09-29T00:22:50.895Z,944.51
2018-09-29T00:23:51.402Z,944.46
2018-09-29T00:24:51.912Z,944.46
2018-09-29T00:25:53.420Z,944.46
2018-09-29T00:26:54.376Z,944.48
2018-09-29T00:27:55.883Z,944.45
2018-09-29T00:28:56.669Z,944.44
2018-09-29T00:29:57.010Z,944.46
2018-09-29T00:30:57.352Z,944.42
2018-09-29T00:31:57.860Z,944.42
2018-09-29T00:32:58.953Z,944.44
2018-09-29T00:33:59.743Z,944.43
2018-09-29T00:35:00.806Z,944.47
2018-09-29T00:36:02.159Z,944.51
2018-09-29T00:37:03.698Z,944.48
2018-09-29T00:38:04.596Z,944.49
2018-09-29T00:39:05.662Z,944.48
2018-09-29T00:40:06.734Z,944.54
2018-09-29T00:41:07.963Z,944.54
2018-09-29T00:42:08.754Z,944.54
2018-09-29T00:43:09.816Z,944.57
2018-09-29T00:44:10.432Z,944.57
2018-09-29T00:45:11.494Z,944.58
2018-09-29T00:46:11.836Z,944.56
2018-09-29T00:47:12.796Z,944.54
2018-09-29T00:48:13.913Z,944.51
2018-09-29T00:49:14.980Z,944.49
2018-09-29T00:50:16.049Z,944.42
2018-09-29T00:51:16.835Z,944.38
2018-09-29T00:52:17.900Z,944.36
2018-09-29T00:53:19.244Z,944.43
2018-09-29T00:54:19.865Z,944.43
2018-09-29T00:55:20.655Z,944.49
2018-09-29T00:56:22.001Z,944.51
2018-09-29T00:57:22.812Z,944.56
2018-09-29T00:58:23.598Z,944.61
2018-09-29T00:59:24.108Z,944.63
2018-09-29T01:00:24.617Z,944.63
2018-09-29T01:01:25.407Z,944.63
2018-09-29T01:02:26.749Z,944.58
2018-09-29T01:03:27.533Z,944.56
2018-09-29T01:04:28.598Z,944.56
2018-09-29T01:05:29.106Z,944.53
2018-09-29T01:06:30.170Z,944.51
2018-09-29T01:07:30.964Z,944.44
2018-09-29T01:08:31.745Z,944.48
2018-09-29T01:09:32.251Z,944.48
2018-09-29T01:10:33.315Z,944.49
2018-09-29T01:11:34.105Z,944.5
2018-09-29T01:12:34.889Z,944.52
2018-09-29T01:13:35.674Z,944.54
2018-09-29T01:14:36.740Z,944.52
2018-09-29T01:15:38.247Z,944.54
2018-09-29T01:16:39.307Z,944.52
2018-09-29T01:17:39.986Z,944.54
2018-09-29T01:18:40.609Z,944.52
2018-09-29T01:19:41.112Z,944.56
2018-09-29T01:20:42.010Z,944.55
2018-09-29T01:21:42.517Z,944.53
2018-09-29T01:22:43.318Z,944.49
2018-09-29T01:23:44.656Z,944.48
2018-09-29T01:24:45.164Z,944.47
2018-09-29T01:25:46.071Z,944.43
2018-09-29T01:26:46.858Z,944.45
2018-09-29T01:27:47.946Z,944.44
2018-09-29T01:28:48.457Z,944.45
2018-09-29T01:29:49.243Z,944.46
2018-09-29T01:30:50.585Z,944.46
2018-09-29T01:31:51.382Z,944.5
2018-09-29T01:32:51.725Z,944.5
2018-09-29T01:33:52.790Z,944.55
2018-09-29T01:34:53.587Z,944.57
2018-09-29T01:35:54.375Z,944.56
2018-09-29T01:36:55.438Z,944.58
2018-09-29T01:37:55.955Z,944.55
2018-09-29T01:38:57.023Z,944.6
2018-09-29T01:39:57.807Z,944.61
2018-09-29T01:40:58.592Z,944.58
2018-09-29T01:41:59.105Z,944.54
2018-09-29T01:42:59.893Z,944.54
2018-09-29T01:44:00.403Z,944.54
2018-09-29T01:45:01.194Z,944.57
2018-09-29T01:46:02.258Z,944.57
2018-09-29T01:47:03.318Z,944.59
2018-09-29T01:48:04.559Z,944.62
2018-09-29T01:49:05.908Z,944.61
2018-09-29T01:50:06.969Z,944.6
2018-09-29T01:51:08.033Z,944.61
2018-09-29T01:52:09.267Z,944.59
2018-09-29T01:53:10.330Z,944.62
2018-09-29T01:54:10.847Z,944.62
2018-09-29T01:55:11.632Z,944.57
2018-09-29T01:56:12.140Z,944.63
2018-09-29T01:57:12.930Z,944.63
2018-09-29T01:58:13.894Z,944.63
2018-09-29T01:59:14.682Z,944.61
2018-09-29T02:00:15.918Z,944.65
2018-09-29T02:01:16.432Z,944.63
2018-09-29T02:02:17.496Z,944.63
2018-09-29T02:03:18.559Z,944.67
2018-09-29T02:04:19.624Z,944.62
2018-09-29T02:05:20.858Z,944.63
2018-09-29T02:06:21.203Z,944.62
2018-09-29T02:07:21.993Z,944.61
2018-09-29T02:08:23.138Z,944.61
2018-09-29T02:09:23.922Z,944.59
2018-09-29T02:10:24.432Z,944.58
2018-09-29T02:11:25.490Z,944.6
2018-09-29T02:12:26.997Z,944.61
2018-09-29T02:13:27.782Z,944.58
2018-09-29T02:14:28.563Z,944.56
2018-09-29T02:15:29.075Z,944.63
2018-09-29T02:16:29.861Z,944.6
2018-09-29T02:17:30.923Z,944.6
2018-09-29T02:18:31.888Z,944.6
2018-09-29T02:19:32.671Z,944.6
2018-09-29T02:20:33.189Z,944.63
2018-09-29T02:21:33.975Z,944.65
2018-09-29T02:22:34.485Z,944.6
2018-09-29T02:23:34.992Z,944.62
2018-09-29T02:24:36.052Z,944.63
2018-09-29T02:25:37.111Z,944.65
2018-09-29T02:26:37.450Z,944.64
2018-09-29T02:27:38.684Z,944.7
2018-09-29T02:28:39.953Z,944.67
2018-09-29T02:29:41.049Z,944.69
2018-09-29T02:30:42.226Z,944.69
2018-09-29T02:31:43.563Z,944.66
2018-09-29T02:32:44.457Z,944.65
2018-09-29T02:33:45.242Z,944.62
2018-09-29T02:34:46.303Z,944.61
2018-09-29T02:35:46.644Z,944.58
2018-09-29T02:36:46.983Z,944.58
2018-09-29T02:37:48.047Z,944.56
2018-09-29T02:38:48.843Z,944.53
2018-09-29T02:39:49.187Z,944.54
2018-09-29T02:40:49.810Z,944.49
2018-09-29T02:41:50.443Z,944.52
2018-09-29T02:42:51.064Z,944.51
2018-09-29T02:43:52.128Z,944.53
2018-09-29T02:44:52.477Z,944.52
2018-09-29T02:45:53.263Z,944.53
2018-09-29T02:46:53.770Z,944.54
2018-09-29T02:47:54.396Z,944.52
2018-09-29T02:48:55.937Z,944.53
2018-09-29T02:49:57.001Z,944.51
2018-09-29T02:50:57.627Z,944.53
2018-09-29T02:51:57.969Z,944.56
2018-09-29T02:52:58.596Z,944.51
2018-09-29T02:53:59.386Z,944.55
2018-09-29T02:55:00.450Z,944.55
2018-09-29T02:56:00.830Z,944.52
2018-09-29T02:57:01.615Z,944.55
2018-09-29T02:58:02.678Z,944.5
2018-09-29T02:59:03.749Z,944.48
2018-09-29T03:00:04.090Z,944.47
2018-09-29T03:01:04.877Z,944.41
2018-09-29T03:02:05.663Z,944.35
2018-09-29T03:03:06.448Z,944.33
2018-09-29T03:04:07.347Z,944.34
2018-09-29T03:05:08.701Z,944.33
2018-09-29T03:06:09.760Z,944.32
2018-09-29T03:07:11.035Z,944.34
2018-09-29T03:08:11.710Z,944.34
2018-09-29T03:09:12.917Z,944.34
2018-09-29T03:10:13.980Z,944.36
2018-09-29T03:11:14.764Z,944.36
2018-09-29T03:12:16.272Z,944.39
2018-09-29T03:13:17.345Z,944.4
2018-09-29T03:14:17.686Z,944.4
2018-09-29T03:15:18.763Z,944.41
2018-09-29T03:16:19.379Z,944.44
2018-09-29T03:17:19.716Z,944.43
2018-09-29T03:18:20.618Z,944.4
2018-09-29T03:19:21.385Z,944.4
2018-09-29T03:20:21.796Z,944.37
2018-09-29T03:21:22.581Z,944.34
2018-09-29T03:22:23.932Z,944.32
2018-09-29T03:23:24.590Z,944.28
2018-09-29T03:24:25.958Z,944.29
2018-09-29T03:25:26.296Z,944.27
2018-09-29T03:26:27.360Z,944.21
2018-09-29T03:27:28.428Z,944.23
2018-09-29T03:28:28.936Z,944.24
2018-09-29T03:29:30.030Z,944.24
2018-09-29T03:30:30.538Z,944.25
2018-09-29T03:31:31.403Z,944.22
2018-09-29T03:32:32.188Z,944.2
2018-09-29T03:33:32.808Z,944.16
2018-09-29T03:34:33.868Z,944.14
2018-09-29T03:35:35.211Z,944.13
2018-09-29T03:36:35.844Z,944.1
2018-09-29T03:37:36.907Z,944.12
2018-09-29T03:38:37.275Z,944.06
2018-09-29T03:39:38.340Z,944.06
2018-09-29T03:40:39.572Z,944.09
2018-09-29T03:41:39.925Z,944.09
2018-09-29T03:42:40.991Z,944.04
2018-09-29T03:43:42.068Z,944.05
2018-09-29T03:44:42.415Z,944.01
2018-09-29T03:45:43.032Z,944
2018-09-29T03:46:43.927Z,944.02
2018-09-29T03:47:44.709Z,944.02
2018-09-29T03:48:45.769Z,944.02
2018-09-29T03:49:46.593Z,944
2018-09-29T03:50:47.498Z,943.99
2018-09-29T03:51:48.302Z,943.99
2018-09-29T03:52:49.093Z,943.98
2018-09-29T03:53:49.744Z,943.98
2018-09-29T03:54:50.640Z,943.97
2018-09-29T03:55:51.258Z,944.01
2018-09-29T03:56:52.320Z,943.98
2018-09-29T03:57:52.839Z,943.95
2018-09-29T03:58:53.901Z,943.98
2018-09-29T03:59:54.544Z,943.99
2018-09-29T04:00:55.886Z,943.98
2018-09-29T04:01:56.967Z,944.03
2018-09-29T04:02:57.585Z,944.05
2018-09-29T04:03:58.655Z,944.08
2018-09-29T04:05:00.159Z,944.1
2018-09-29T04:06:01.528Z,944.1
2018-09-29T04:07:02.320Z,944.11
2018-09-29T04:08:03.658Z,944.1
2018-09-29T04:09:04.329Z,944.07
2018-09-29T04:10:05.123Z,944.04
2018-09-29T04:11:06.187Z,944.01
2018-09-29T04:12:07.253Z,944.04
2018-09-29T04:13:07.607Z,944.03
2018-09-29T04:14:08.670Z,944
2018-09-29T04:15:10.026Z,944.06
2018-09-29T04:16:10.956Z,944.04
2018-09-29T04:17:11.741Z,944.04
2018-09-29T04:18:13.083Z,944.08
2018-09-29T04:19:13.444Z,944.09
2018-09-29T04:20:14.680Z,944.11
2018-09-29T04:21:15.755Z,944.11
2018-09-29T04:22:16.547Z,944.12
2018-09-29T04:23:16.887Z,944.12
2018-09-29T04:24:17.248Z,944.1
2018-09-29T04:25:17.593Z,944.09
2018-09-29T04:26:17.934Z,944.1
2018-09-29T04:27:19.120Z,944.11
2018-09-29T04:28:20.178Z,944.1
2018-09-29T04:29:20.963Z,944.16
2018-09-29T04:30:21.778Z,944.19
2018-09-29T04:31:22.398Z,944.2
2018-09-29T04:32:22.747Z,944.18
2018-09-29T04:33:23.807Z,944.19
2018-09-29T04:34:24.315Z,944.21
2018-09-29T04:35:25.657Z,944.19
2018-09-29T04:36:26.721Z,944.18
2018-09-29T04:37:27.508Z,944.2
2018-09-29T04:38:28.570Z,944.2
2018-09-29T04:39:29.632Z,944.18
2018-09-29T04:40:30.892Z,944.15
2018-09-29T04:41:31.510Z,944.15
2018-09-29T04:42:32.295Z,944.14
2018-09-29T04:43:33.803Z,944.1
2018-09-29T04:44:34.869Z,944.11
2018-09-29T04:45:35.649Z,944.1
2018-09-29T04:46:36.711Z,944.16
2018-09-29T04:47:37.219Z,944.11
2018-09-29T04:48:37.724Z,944.11
2018-09-29T04:49:38.510Z,944.12
2018-09-29T04:50:39.300Z,944.12
2018-09-29T04:51:40.531Z,944.14
2018-09-29T04:52:41.314Z,944.11
2018-09-29T04:53:41.820Z,944.15
2018-09-29T04:54:42.333Z,944.2
2018-09-29T04:55:43.392Z,944.17
2018-09-29T04:56:43.900Z,944.19
2018-09-29T04:57:45.133Z,944.17
2018-09-29T04:58:45.918Z,944.17
2018-09-29T04:59:46.704Z,944.21
2018-09-29T05:00:47.938Z,944.23
2018-09-29T05:01:48.719Z,944.26
2018-09-29T05:02:49.338Z,944.26
2018-09-29T05:03:49.700Z,944.23
2018-09-29T05:04:50.203Z,944.23
2018-09-29T05:05:50.823Z,944.24
2018-09-29T05:06:51.884Z,944.18
2018-09-29T05:07:52.389Z,944.16
2018-09-29T05:08:53.178Z,944.18
2018-09-29T05:09:54.242Z,944.21
2018-09-29T05:10:55.760Z,944.21
2018-09-29T05:11:56.545Z,944.23
2018-09-29T05:12:57.053Z,944.24
2018-09-29T05:13:09.033Z,944.23
2018-09-29T05:14:09.985Z,944.23
2018-09-29T05:15:10.771Z,944.25
2018-09-29T05:16:11.279Z,944.28
2018-09-29T05:17:12.339Z,944.28
2018-09-29T05:18:12.689Z,944.32
2018-09-29T05:19:13.205Z,944.31
2018-09-29T05:20:13.707Z,944.35
2018-09-29T05:21:14.774Z,944.32
2018-09-29T05:22:16.118Z,944.35
2018-09-29T05:23:17.450Z,944.36
2018-09-29T05:24:18.525Z,944.35
2018-09-29T05:25:19.313Z,944.36
2018-09-29T05:26:19.937Z,944.33
2018-09-29T05:27:20.275Z,944.38
2018-09-29T05:28:20.781Z,944.36
2018-09-29T05:29:21.568Z,944.4
2018-09-29T05:30:22.366Z,944.4
2018-09-29T05:31:23.150Z,944.42
2018-09-29T05:32:23.942Z,944.43
2018-09-29T05:33:24.287Z,944.44
2018-09-29T05:34:25.246Z,944.41
2018-09-29T05:35:26.308Z,944.41
2018-09-29T05:36:27.095Z,944.44
2018-09-29T05:37:27.607Z,944.4
2018-09-29T05:38:28.820Z,944.4
2018-09-29T05:39:29.303Z,944.38
2018-09-29T05:40:30.372Z,944.42
2018-09-29T05:41:31.159Z,944.4
2018-09-29T05:42:32.669Z,944.42
2018-09-29T05:43:33.736Z,944.43
2018-09-29T05:44:34.981Z,944.39
2018-09-29T05:45:35.492Z,944.43
2018-09-29T05:46:36.559Z,944.42
2018-09-29T05:47:37.068Z,944.42
2018-09-29T05:48:38.303Z,944.42
2018-09-29T05:49:39.085Z,944.42
2018-09-29T05:50:39.592Z,944.43
2018-09-29T05:51:40.379Z,944.46
2018-09-29T05:52:41.614Z,944.49
2018-09-29T05:53:43.238Z,944.46
2018-09-29T05:54:44.058Z,944.52
2018-09-29T05:55:44.415Z,944.46
2018-09-29T05:56:45.197Z,944.48
2018-09-29T05:57:46.431Z,944.51
2018-09-29T05:58:47.775Z,944.47
2018-09-29T05:59:48.295Z,944.54
2018-09-29T06:00:49.368Z,944.49
2018-09-29T06:01:49.708Z,944.54
2018-09-29T06:02:50.501Z,944.55
2018-09-29T06:03:51.283Z,944.53
2018-09-29T06:04:52.245Z,944.55
2018-09-29T06:05:53.081Z,944.51
2018-09-29T06:06:53.620Z,944.51
2018-09-29T06:07:54.447Z,944.49
2018-09-29T06:08:55.526Z,944.51
2018-09-29T06:09:56.039Z,944.45
2018-09-29T06:10:57.478Z,944.49
2018-09-29T06:11:58.268Z,944.47
2018-09-29T06:12:58.993Z,944.47
2018-09-29T06:13:59.300Z,944.5
2018-09-29T06:15:00.264Z,944.49
2018-09-29T06:16:01.052Z,944.54
2018-09-29T06:17:01.838Z,944.56
2018-09-29T06:18:02.207Z,944.52
2018-09-29T06:19:02.992Z,944.53
2018-09-29T06:20:03.501Z,944.52
2018-09-29T06:21:04.642Z,944.54
2018-09-29T06:22:05.364Z,944.59
2018-09-29T06:23:05.866Z,944.58
2018-09-29T06:24:07.209Z,944.64
2018-09-29T06:25:08.175Z,944.66
2018-09-29T06:26:08.960Z,944.63
2018-09-29T06:27:09.762Z,944.62
2018-09-29T06:28:10.271Z,944.64
2018-09-29T06:29:11.339Z,944.68
2018-09-29T06:30:12.399Z,944.67
2018-09-29T06:31:13.464Z,944.67
2018-09-29T06:32:14.533Z,944.7
2018-09-29T06:33:15.601Z,944.65
2018-09-29T06:34:16.519Z,944.72
2018-09-29T06:35:17.426Z,944.74
2018-09-29T06:36:18.489Z,944.69
2018-09-29T06:37:19.110Z,944.72
2018-09-29T06:38:20.018Z,944.75
2018-09-29T06:39:20.997Z,944.76
2018-09-29T06:40:21.645Z,944.8
2018-09-29T06:41:22.173Z,944.82
2018-09-29T06:42:22.843Z,944.78
2018-09-29T06:43:23.881Z,944.84
2018-09-29T06:44:24.686Z,944.78
2018-09-29T06:45:25.924Z,944.85
2018-09-29T06:46:26.992Z,944.86
2018-09-29T06:47:27.619Z,944.81
2018-09-29T06:48:28.128Z,944.86
2018-09-29T06:49:28.916Z,944.89
2018-09-29T06:50:29.544Z,944.81
2018-09-29T06:51:30.171Z,944.83
2018-09-29T06:52:31.516Z,944.8
2018-09-29T06:53:32.025Z,944.82
2018-09-29T06:54:32.959Z,944.88
2018-09-29T06:55:33.789Z,944.91
2018-09-29T06:56:34.582Z,944.92
2018-09-29T06:57:35.202Z,944.96
2018-09-29T06:58:35.549Z,944.95
2018-09-29T06:59:35.890Z,944.96
2018-09-29T07:00:36.532Z,945
2018-09-29T07:01:37.873Z,945
2018-09-29T07:02:38.664Z,944.99
2018-09-29T07:03:39.779Z,945.01
2018-09-29T07:04:40.961Z,944.98
2018-09-29T07:05:42.340Z,944.99
2018-09-29T07:06:42.851Z,945.01
2018-09-29T07:07:43.645Z,945
2018-09-29T07:08:44.708Z,945.01
2018-09-29T07:09:45.216Z,945
2018-09-29T07:10:46.005Z,944.99
2018-09-29T07:11:46.510Z,945.01
2018-09-29T07:12:47.632Z,945.03
2018-09-29T07:13:48.519Z,945.04
2018-09-29T07:14:49.141Z,945.03
2018-09-29T07:15:49.665Z,945.01
2018-09-29T07:16:50.018Z,945.04
2018-09-29T07:17:51.079Z,945.02
2018-09-29T07:18:51.915Z,945.09
2018-09-29T07:19:53.101Z,945.03
2018-09-29T07:20:53.611Z,945.04
2018-09-29T07:21:54.443Z,945.04
2018-09-29T07:22:55.709Z,945.02
2018-09-29T07:23:56.498Z,945.04
2018-09-29T07:24:57.287Z,945.01
2018-09-29T07:25:57.696Z,945
2018-09-29T07:26:58.207Z,945
2018-09-29T07:27:59.014Z,945
2018-09-29T07:28:59.524Z,945.01
2018-09-29T07:30:00.311Z,945.04
2018-09-29T07:31:01.401Z,945
2018-09-29T07:32:02.752Z,945
2018-09-29T07:33:03.820Z,945.04
2018-09-29T07:34:04.615Z,945.01
2018-09-29T07:35:05.401Z,944.99
2018-09-29T07:36:06.088Z,944.97
2018-09-29T07:37:06.600Z,944.98
2018-09-29T07:38:07.112Z,944.99
2018-09-29T07:39:07.626Z,945
2018-09-29T07:40:08.417Z,945.02
2018-09-29T07:41:09.483Z,945.02
2018-09-29T07:42:10.828Z,945
2018-09-29T07:43:11.463Z,945.03
2018-09-29T07:44:11.975Z,945.07
2018-09-29T07:45:12.485Z,945.08
2018-09-29T07:46:13.025Z,945.07
2018-09-29T07:47:13.936Z,945.07
2018-09-29T07:48:15.003Z,945.09
2018-09-29T07:49:15.631Z,945.13
2018-09-29T07:50:16.623Z,945.13
2018-09-29T07:51:17.251Z,945.17
2018-09-29T07:52:18.057Z,945.16
2018-09-29T07:53:18.848Z,945.19
2018-09-29T07:54:19.637Z,945.16
2018-09-29T07:55:19.984Z,945.15
2018-09-29T07:56:20.349Z,945.13
2018-09-29T07:57:21.419Z,945.13
2018-09-29T07:58:21.929Z,945.15
2018-09-29T07:59:22.715Z,945.11
2018-09-29T08:00:23.914Z,945.16
2018-09-29T08:01:24.989Z,945.11
2018-09-29T08:02:25.383Z,945.1
2018-09-29T08:03:26.179Z,945.09
2018-09-29T08:04:27.521Z,945.07
2018-09-29T08:05:28.760Z,945.09
2018-09-29T08:06:30.421Z,945.09
2018-09-29T08:07:31.443Z,945.08
2018-09-29T08:08:31.952Z,945.06
2018-09-29T08:09:32.466Z,945.03
2018-09-29T08:10:33.532Z,945.03
2018-09-29T08:11:34.602Z,944.99
2018-09-29T08:12:35.670Z,944.98
2018-09-29T08:13:36.737Z,944.98
2018-09-29T08:14:37.806Z,944.95
2018-09-29T08:15:38.321Z,945.01
2018-09-29T08:16:39.287Z,945.02
2018-09-29T08:17:40.633Z,945.02
2018-09-29T08:18:41.145Z,944.99
2018-09-29T08:19:42.218Z,945
2018-09-29T08:20:42.729Z,945.04
2018-09-29T08:21:43.521Z,945.07
2018-09-29T08:22:44.033Z,945.09
2018-09-29T08:23:44.822Z,945.05
2018-09-29T08:24:46.165Z,945.05
2018-09-29T08:25:47.236Z,945.12
2018-09-29T08:26:47.814Z,945.08
2018-09-29T08:27:48.441Z,945.09
2018-09-29T08:28:48.956Z,945.13
2018-09-29T08:29:49.857Z,945.12
2018-09-29T08:30:50.370Z,945.12
2018-09-29T08:31:51.439Z,945.14
2018-09-29T08:32:52.511Z,945.16
2018-09-29T08:33:53.747Z,945.18
2018-09-29T08:34:54.096Z,945.16
2018-09-29T08:35:55.442Z,945.13
2018-09-29T08:36:56.132Z,945.12
2018-09-29T08:37:57.247Z,945.18
2018-09-29T08:38:58.035Z,945.17
2018-09-29T08:39:59.102Z,945.15
2018-09-29T08:40:59.453Z,945.2
2018-09-29T08:41:59.976Z,945.21
2018-09-29T08:43:01.043Z,945.16
2018-09-29T08:44:02.109Z,945.14
2018-09-29T08:45:02.624Z,945.14
2018-09-29T08:46:03.251Z,945.15
2018-09-29T08:47:04.253Z,945.14
2018-09-29T08:48:05.128Z,945.15
2018-09-29T08:49:06.195Z,945.14
2018-09-29T08:50:06.987Z,945.1
2018-09-29T08:51:08.053Z,945.17
2018-09-29T08:52:08.843Z,945.12
2018-09-29T08:53:10.512Z,945.18
2018-09-29T08:54:11.539Z,945.15
2018-09-29T08:55:12.329Z,945.19
2018-09-29T08:56:12.842Z,945.14
2018-09-29T08:57:14.104Z,945.17
2018-09-29T08:58:14.619Z,945.16
2018-09-29T08:59:15.685Z,945.13
2018-09-29T09:00:16.923Z,945.11
2018-09-29T09:01:17.711Z,945.1
2018-09-29T09:02:18.506Z,945.12
2018-09-29T09:03:19.316Z,945.13
2018-09-29T09:04:20.383Z,945.12
2018-09-29T09:05:20.898Z,945.1
2018-09-29T09:06:21.962Z,945.13
2018-09-29T09:07:22.933Z,945.1
2018-09-29T09:08:23.724Z,945.13
2018-09-29T09:09:25.231Z,945.15
2018-09-29T09:10:25.901Z,945.18
2018-09-29T09:11:26.971Z,945.15
2018-09-29T09:12:27.325Z,945.13
2018-09-29T09:13:28.440Z,945.14
2018-09-29T09:14:29.236Z,945.17
2018-09-29T09:15:30.304Z,945.14
2018-09-29T09:16:31.373Z,945.12
2018-09-29T09:17:32.616Z,945.15
2018-09-29T09:18:33.736Z,945.1
2018-09-29T09:19:34.809Z,945.09
2018-09-29T09:20:35.321Z,945.07
2018-09-29T09:21:35.870Z,945.08
2018-09-29T09:22:37.187Z,945.08
2018-09-29T09:23:37.979Z,945.08
2018-09-29T09:24:39.325Z,945.1
2018-09-29T09:25:40.675Z,945
2018-09-29T09:26:41.746Z,945.05
2018-09-29T09:27:42.847Z,945.04
2018-09-29T09:28:43.211Z,945.03
2018-09-29T09:29:44.841Z,945.05
2018-09-29T09:30:45.770Z,945.07
2018-09-29T09:31:46.842Z,945.03
2018-09-29T09:32:47.189Z,945.02
2018-09-29T09:33:47.980Z,944.98
2018-09-29T09:34:48.332Z,945.03
2018-09-29T09:35:48.843Z,945.03
2018-09-29T09:36:50.357Z,945.03
2018-09-29T09:37:51.600Z,945.03
2018-09-29T09:38:52.389Z,945.04
2018-09-29T09:39:52.901Z,945.02
2018-09-29T09:40:53.977Z,945.01
2018-09-29T09:41:54.325Z,945.02
2018-09-29T09:42:55.117Z,944.99
2018-09-29T09:43:56.186Z,944.96
2018-09-29T09:44:57.255Z,944.97
2018-09-29T09:45:58.050Z,944.95
2018-09-29T09:46:59.406Z,944.99
2018-09-29T09:48:00.500Z,944.97
2018-09-29T09:49:01.292Z,945
2018-09-29T09:50:02.364Z,944.96
2018-09-29T09:51:03.439Z,944.98
2018-09-29T09:52:04.221Z,944.97
2018-09-29T09:53:05.014Z,944.93
2018-09-29T09:54:05.805Z,944.91
2018-09-29T09:55:06.160Z,944.93
2018-09-29T09:56:07.472Z,944.9
2018-09-29T09:57:08.348Z,944.91
2018-09-29T09:58:09.334Z,944.93
2018-09-29T09:59:09.958Z,944.9
2018-09-29T10:00:11.040Z,944.9
2018-09-29T10:01:11.391Z,944.88
2018-09-29T10:02:11.731Z,944.84
2018-09-29T10:03:12.524Z,944.83
2018-09-29T10:04:13.890Z,944.85
2018-09-29T10:05:14.391Z,944.82
2018-09-29T10:06:14.739Z,944.81
2018-09-29T10:07:15.858Z,944.81
2018-09-29T10:08:16.959Z,944.84
2018-09-29T10:09:18.327Z,944.83
2018-09-29T10:10:19.394Z,944.78
2018-09-29T10:11:20.458Z,944.78
2018-09-29T10:12:20.974Z,944.75
2018-09-29T10:13:21.774Z,944.73
2018-09-29T10:14:22.126Z,944.73
2018-09-29T10:15:23.196Z,944.74
2018-09-29T10:16:24.431Z,944.73
2018-09-29T10:17:26.037Z,944.72
2018-09-29T10:18:26.890Z,944.74
2018-09-29T10:19:27.794Z,944.72
2018-09-29T10:20:29.028Z,944.72
2018-09-29T10:21:29.827Z,944.74
2018-09-29T10:22:30.209Z,944.71
2018-09-29T10:23:30.554Z,944.72
2018-09-29T10:24:31.350Z,944.68
2018-09-29T10:25:32.458Z,944.69
2018-09-29T10:26:33.249Z,944.67
2018-09-29T10:27:34.348Z,944.67
2018-09-29T10:28:34.964Z,944.66
2018-09-29T10:29:35.756Z,944.66
2018-09-29T10:30:37.332Z,944.66
2018-09-29T10:31:38.064Z,944.58
2018-09-29T10:32:38.856Z,944.57
2018-09-29T10:33:39.669Z,944.62
2018-09-29T10:34:40.190Z,944.6
2018-09-29T10:35:40.982Z,944.59
2018-09-29T10:36:41.780Z,944.62
2018-09-29T10:37:42.126Z,944.57
2018-09-29T10:38:42.647Z,944.59
2018-09-29T10:39:43.723Z,944.57
2018-09-29T10:40:44.236Z,944.51
2018-09-29T10:41:45.028Z,944.52
2018-09-29T10:42:46.097Z,944.51
2018-09-29T10:43:46.442Z,944.51
2018-09-29T10:44:47.343Z,944.55
2018-09-29T10:45:48.580Z,944.48
2018-09-29T10:46:49.092Z,944.47
2018-09-29T10:47:49.892Z,944.47
2018-09-29T10:48:50.434Z,944.45
2018-09-29T10:49:50.779Z,944.4
2018-09-29T10:50:51.569Z,944.41
2018-09-29T10:51:52.643Z,944.45
2018-09-29T10:52:54.118Z,944.41
2018-09-29T10:53:55.208Z,944.44
2018-09-29T10:54:56.285Z,944.39
2018-09-29T10:55:57.082Z,944.4
2018-09-29T10:56:57.877Z,944.38
2018-09-29T10:57:58.386Z,944.38
2018-09-29T10:58:59.403Z,944.42
2018-09-29T11:00:00.468Z,944.44
2018-09-29T11:01:01.537Z,944.45
2018-09-29T11:02:02.387Z,944.42
2018-09-29T11:03:02.754Z,944.46
2018-09-29T11:04:03.523Z,944.41
2018-09-29T11:05:04.119Z,944.37
2018-09-29T11:06:05.540Z,944.36
2018-09-29T11:07:06.092Z,944.37
2018-09-29T11:08:07.163Z,944.34
2018-09-29T11:09:08.408Z,944.33
2018-09-29T11:10:09.194Z,944.33
2018-09-29T11:11:10.541Z,944.32
2018-09-29T11:12:11.056Z,944.34
2018-09-29T11:13:12.572Z,944.3
2018-09-29T11:14:13.279Z,944.3
2018-09-29T11:15:14.475Z,944.29
2018-09-29T11:16:14.826Z,944.31
2018-09-29T11:17:15.344Z,944.28
2018-09-29T11:18:15.863Z,944.3
2018-09-29T11:19:16.759Z,944.29
2018-09-29T11:20:17.926Z,944.22
2018-09-29T11:21:19.082Z,944.28
2018-09-29T11:22:19.534Z,944.22
2018-09-29T11:23:20.634Z,944.22
2018-09-29T11:24:21.147Z,944.26
2018-09-29T11:25:21.956Z,944.21
2018-09-29T11:26:23.024Z,944.24
2018-09-29T11:27:24.372Z,944.19
2018-09-29T11:28:25.605Z,944.17
2018-09-29T11:29:26.570Z,944.21
2018-09-29T11:30:27.090Z,944.18
2018-09-29T11:31:27.606Z,944.2
2018-09-29T11:32:28.701Z,944.21
2018-09-29T11:33:29.779Z,944.18
2018-09-29T11:34:30.846Z,944.19
2018-09-29T11:35:31.922Z,944.18
2018-09-29T11:36:32.992Z,944.15
2018-09-29T11:37:34.229Z,944.13
2018-09-29T11:38:34.775Z,944.18
2018-09-29T11:39:35.098Z,944.18
2018-09-29T11:40:36.751Z,944.14
2018-09-29T11:41:37.594Z,944.15
2018-09-29T11:42:38.658Z,944.13
2018-09-29T11:43:39.726Z,944.14
2018-09-29T11:44:40.094Z,944.11
2018-09-29T11:45:41.248Z,944.11
2018-09-29T11:46:42.039Z,944.07
2018-09-29T11:47:43.110Z,944.06
2018-09-29T11:48:43.624Z,944.06
2018-09-29T11:49:44.871Z,944.04
2018-09-29T11:50:45.664Z,944.06
2018-09-29T11:51:46.458Z,944.01
2018-09-29T11:52:47.250Z,944.02
2018-09-29T11:53:48.054Z,944.03
2018-09-29T11:54:49.276Z,943.99
2018-09-29T11:55:50.789Z,943.99
2018-09-29T11:56:51.652Z,944
2018-09-29T11:57:52.473Z,943.96
2018-09-29T11:58:53.672Z,943.99
2018-09-29T11:59:54.240Z,943.95
2018-09-29T12:00:55.033Z,943.95
2018-09-29T12:01:55.983Z,943.95
2018-09-29T12:02:56.699Z,943.93
2018-09-29T12:03:57.494Z,943.94
2018-09-29T12:04:58.562Z,943.89
2018-09-29T12:05:59.710Z,943.86
2018-09-29T12:07:00.162Z,943.89
2018-09-29T12:08:01.070Z,943.88
2018-09-29T12:09:01.870Z,943.88
2018-09-29T12:11:04.184Z,943.82
2018-09-29T12:12:04.535Z,943.81
2018-09-29T12:13:05.333Z,943.84
2018-09-29T12:14:06.129Z,943.82
2018-09-29T12:15:06.481Z,943.8
2018-09-29T12:16:07.275Z,943.81
2018-09-29T12:17:08.345Z,943.83
2018-09-29T12:18:09.418Z,943.79
2018-09-29T12:19:09.931Z,943.8
2018-09-29T12:20:11.181Z,943.75
2018-09-29T12:21:12.057Z,943.76
2018-09-29T12:22:12.463Z,943.74
2018-09-29T12:23:13.968Z,943.74
2018-09-29T12:24:15.038Z,943.7
2018-09-29T12:25:15.556Z,943.7
2018-09-29T12:26:16.903Z,943.74
2018-09-29T12:27:17.975Z,943.71
2018-09-29T12:27:29.969Z,943.68
2018-09-29T12:28:31.226Z,943.68
2018-09-29T12:29:32.063Z,943.73
2018-09-29T12:30:32.459Z,943.65
2018-09-29T12:31:33.248Z,943.65
2018-09-29T12:32:33.601Z,943.66
2018-09-29T12:33:34.133Z,943.65
2018-09-29T12:34:34.666Z,943.64
2018-09-29T12:35:35.022Z,943.64
2018-09-29T12:36:35.543Z,943.61
2018-09-29T12:37:36.262Z,943.63
2018-09-29T12:38:36.977Z,943.61
2018-09-29T12:39:38.044Z,943.55
2018-09-29T12:40:40.516Z,943.61
2018-09-29T12:41:40.880Z,943.59
2018-09-29T12:42:41.980Z,943.56